Flight Track Log - Related Links

Times and Time Zones

All times are in EDT time to prevent confusion due to time zone crossing. See the SWA1725 flight status page for this flight to view local times or setup timezone preferences in your user account.

Time Position Orientation Groundspeed Altitude Reporting Facility
EDT Latitude Longitude Course Direction KTS MPH feet Rate Location/Type
Sat 04:53:42 PM 39.1833 -76.7333 218° Southwest 183 211 2,600  Level Potomac TRACON
Sat 04:54:42 PM 39.2000 -76.8167 284° West 246 283 6,000 3,850 Climbing Potomac TRACON
Sat 04:55:42 PM 39.2167 -76.9167 282° West 280 322 10,300 10,462 Climbing Potomac TRACON
Sat 04:57:57 PM 39.0933 -77.1214 232° Southwest 339 390 40,000 2,939 Climbing Washington Center
Sat 04:58:58 PM 39.0750 -77.2494 260° West 344 396 19,900 -6,945 Descending Washington Center
Sat 04:59:00 PM 39.0063 -77.3104 218° Southwest  Level FlightAware Approximate
Sat 05:00:23 PM 39.0581 -77.4067 262° West 358 412 23,100  Level Washington Center
Sat 05:01:21 PM 39.0389 -77.5772 262° West 386 444 25,700 1,983 Climbing Washington Center
Sat 05:02:21 PM 39.0197 -77.7211 260° West 410 472 27,000 650 Climbing Washington Center
Sat 05:03:21 PM 39.0025 -77.8647 261° West 410 472 27,000 492 Level Washington Center
Sat 05:04:23 PM 38.9894 -77.9953 263° West 410 472 28,000 1,350 Climbing Washington Center
Sat 05:05:21 PM 38.9675 -78.1572 260° West 416 479 29,700 2,067 Climbing Washington Center
Sat 05:06:22 PM 38.9625 -78.2881 267° West 416 479 32,100 2,281 Climbing Washington Center
Sat 05:07:22 PM 38.9653 -78.4350 271° West 416 479 34,300 2,350 Climbing Washington Center
Sat 05:08:22 PM 38.9722 -78.5794 274° West 411 473 36,800 2,132 Climbing Washington Center
Sat 05:09:23 PM 38.9750 -78.7156 272° West 404 465 38,600 1,210 Climbing Washington Center
Sat 05:10:21 PM 38.9797 -78.8547 273° West 399 459 39,200 661 Climbing Washington Center
Sat 05:11:21 PM 38.9819 -78.9992 271° West 399 459 39,900 400 Climbing Washington Center
Sat 05:12:21 PM 38.9881 -79.1461 273° West 411 473 40,000 50 Climbing Washington Center
Sat 05:13:22 PM 38.9900 -79.2906 271° West 411 473 40,000  Level Washington Center
Sat 05:14:22 PM 38.9917 -79.4350 271° West 405 466 40,000  Level Washington Center
Sat 05:15:22 PM 38.9989 -79.5956 273° West 414 476 40,000  Level Washington Center
Sat 05:16:23 PM 39.0003 -79.7425 271° West 419 482 40,000  Level Washington Center
Sat 05:17:21 PM 39.0036 -79.8817 272° West 414 476 40,000  Level Washington Center
Sat 05:18:28 PM 39.0031 -80.0381 270° West 399 459 40,000  Level Indianapolis Center
Sat 05:19:29 PM 39.0056 -80.1644 271° West 397 457 40,000  Level Indianapolis Center
Sat 05:20:30 PM 39.0258 -80.3019 281° West 394 453 40,000  Level Indianapolis Center
Sat 05:21:31 PM 39.0461 -80.4397 281° West 395 455 40,000  Level Indianapolis Center
Sat 05:22:32 PM 39.0683 -80.5769 282° West 395 455 40,000  Level Indianapolis Center
Sat 05:23:33 PM 39.0944 -80.7456 281° West 400 460 40,000  Level Indianapolis Center
Sat 05:24:34 PM 39.1158 -80.8853 281° West 400 460 40,000  Level Indianapolis Center
Sat 05:25:35 PM 39.1375 -81.0250 281° West 402 463 40,000  Level Indianapolis Center
Sat 05:26:36 PM 39.1597 -81.1653 282° West 404 465 40,000  Level Indianapolis Center
Sat 05:27:37 PM 39.1803 -81.3061 281° West 404 465 40,000  Level Indianapolis Center
Sat 05:28:38 PM 39.2011 -81.4464 281° West 402 463 40,000  Level Indianapolis Center
Sat 05:29:38 PM 39.2217 -81.5881 281° West 403 464 40,000  Level Indianapolis Center
Sat 05:30:39 PM 39.2419 -81.7297 281° West 405 466 40,000  Level Indianapolis Center
Sat 05:31:40 PM 39.2619 -81.8706 280° West 402 463 40,000  Level Indianapolis Center
Sat 05:32:41 PM 39.2825 -82.0108 281° West 400 460 40,000  Level Indianapolis Center
Sat 05:33:42 PM 39.3022 -82.1517 280° West 399 459 40,000  Level Indianapolis Center
Sat 05:34:43 PM 39.3253 -82.3183 280° West 396 456 40,000  Level Indianapolis Center
Sat 05:35:44 PM 39.3500 -82.4575 283° West 398 458 40,000  Level Indianapolis Center
Sat 05:36:45 PM 39.3861 -82.5961 289° West 398 458 40,000  Level Indianapolis Center
Sat 05:37:46 PM 39.4214 -82.7328 289° West 400 460 40,000  Level Indianapolis Center
Sat 05:38:47 PM 39.4639 -82.8664 292° West 401 461 40,000  Level Indianapolis Center
Sat 05:39:48 PM 39.5069 -82.9975 293° West 397 457 40,000  Level Indianapolis Center
Sat 05:40:49 PM 39.5522 -83.1272 294° West 395 455 40,000  Level Indianapolis Center
Sat 05:41:49 PM 39.5950 -83.2561 293° West 391 450 40,000  Level Indianapolis Center
Sat 05:42:50 PM 39.6403 -83.3853 295° West 390 449 40,000 -49 Level Indianapolis Center
Sat 05:43:51 PM 39.6858 -83.5153 295° West 390 449 39,900  Descending Indianapolis Center
Sat 05:44:52 PM 39.7331 -83.6464 295° West 392 451 40,000 49 Climbing Indianapolis Center
Sat 05:45:53 PM 39.7819 -83.7753 296° West 392 451 40,000  Level Indianapolis Center
Sat 05:46:54 PM 39.8325 -83.9050 297° West 397 457 40,000  Level Indianapolis Center
Sat 05:47:55 PM 39.8872 -84.0336 299° West 403 464 40,000  Level Indianapolis Center
Sat 05:48:56 PM 39.9433 -84.1631 300° West 408 470 40,000  Level Indianapolis Center
Sat 05:49:57 PM 40.0017 -84.2931 300° West 413 475 40,000  Level Indianapolis Center
Sat 05:50:58 PM 40.0572 -84.4256 299° West 417 480 40,000  Level Indianapolis Center
Sat 05:51:59 PM 40.1119 -84.5603 298° West 419 482 40,000 -49 Level Indianapolis Center
Sat 05:53:00 PM 40.1639 -84.6969 296° West 420 483 39,900  Descending Indianapolis Center
Sat 05:54:01 PM 40.2142 -84.8300 296° West 411 473 40,000 49 Climbing Indianapolis Center
Sat 05:55:02 PM 40.2489 -84.9864 286° West 412 474 40,000  Level Indianapolis Center
Sat 05:56:03 PM 40.2775 -85.1292 285° West 409 471 40,000  Level Indianapolis Center
Sat 05:57:04 PM 40.3003 -85.2731 282° West 407 468 40,000  Level Indianapolis Center
Sat 05:58:05 PM 40.3217 -85.4164 281° West 405 466 40,000  Level Indianapolis Center
Sat 05:59:19 PM 40.3444 -85.5897 280° West 405 466 40,000  Level Indianapolis Center
Sat 06:00:20 PM 40.3594 -85.7342 278° West 404 465 40,000  Level Indianapolis Center
Sat 06:01:21 PM 40.3786 -85.9097 278° West 408 470 40,000  Level Indianapolis Center
Sat 06:01:57 PM 40.3889 -85.9958 279° West 409 471 40,000  Level Chicago Center
Sat 06:02:59 PM 40.4044 -86.1439 278° West 413 475 40,000  Level Chicago Center
Sat 06:04:00 PM 40.4206 -86.2889 278° West 407 468 40,000  Level Chicago Center
Sat 06:05:02 PM 40.3942 -86.4250 256° West 408 470 40,000  Level Chicago Center
Sat 06:06:04 PM 40.3278 -86.5367 232° Southwest 396 456 40,000 -341 Level Chicago Center
Sat 06:07:05 PM 40.2611 -86.6483 232° Southwest 391 450 39,300 -878 Descending Chicago Center
Sat 06:08:07 PM 40.1767 -86.7858 231° Southwest 403 464 38,200 -976 Descending Chicago Center
Sat 06:09:08 PM 40.0981 -86.8950 227° Southwest 415 478 37,300 -927 Descending Chicago Center
Sat 06:10:10 PM 40.0025 -86.9828 215° Southwest 423 487 36,300 -634 Descending Chicago Center
Sat 06:11:11 PM 39.9053 -87.0728 215° Southwest 431 496 36,000 -146 Descending Chicago Center
Sat 06:12:13 PM 39.8022 -87.1500 210° Southwest 431 496 36,000 -49 Level Chicago Center
Sat 06:13:14 PM 39.7000 -87.2269 210° Southwest 429 494 35,900 -976 Descending Chicago Center
Sat 06:14:16 PM 39.5753 -87.3189 210° Southwest 431 496 34,000 -1,027 Descending Chicago Center
Sat 06:15:05 PM 39.5275 -87.4269 240° Southwest 430 495 34,000  Level Kansas City Center
Sat 06:15:36 PM 39.5189 -87.4786 258° West 419 482 34,000  Level Indianapolis Center
Sat 06:16:37 PM 39.4872 -87.6217 254° West 416 479 34,000  Level Indianapolis Center
Sat 06:17:38 PM 39.4547 -87.7644 254° West 415 478 34,000 -836 Level Indianapolis Center
Sat 06:18:39 PM 39.4158 -87.9356 254° West 415 478 32,300 -1,967 Descending Indianapolis Center
Sat 06:19:40 PM 39.3839 -88.0814 254° West 423 487 30,000 -1,500 Descending Indianapolis Center
Sat 06:20:11 PM 39.3658 -88.1469 250° West 418 481 30,000  Level Kansas City Center
Sat 06:21:13 PM 39.3272 -88.2908 251° West 423 487 30,000  Level Kansas City Center
Sat 06:22:14 PM 39.2872 -88.4375 251° West 428 493 30,000  Level Kansas City Center
Sat 06:23:15 PM 39.2475 -88.5828 251° West 429 494 30,000 -1,180 Level Kansas City Center
Sat 06:24:16 PM 39.2058 -88.7392 251° West 424 488 27,600 -2,293 Descending Kansas City Center
Sat 06:25:18 PM 39.1692 -88.8753 251° West 410 472 25,300 -2,341 Descending Kansas City Center
Sat 06:26:19 PM 39.1333 -89.0192 252° West 392 451 22,800 -2,311 Descending Kansas City Center
Sat 06:27:20 PM 39.0983 -89.1458 250° West 381 438 20,600 -2,262 Descending Kansas City Center
Sat 06:28:21 PM 39.0667 -89.2786 253° West 364 419 18,200 -2,341 Descending Kansas City Center
Sat 06:29:23 PM 39.0400 -89.4000 254° West 356 410 15,800 -2,195 Descending Kansas City Center
Sat 06:30:24 PM 39.0139 -89.5158 254° West 343 395 13,700 -1,967 Descending Kansas City Center
Sat 06:31:25 PM 38.9686 -89.6156 240° Southwest 334 384 11,800 -1,770 Descending Kansas City Center
Sat 06:32:26 PM 38.9150 -89.7172 236° Southwest 319 367 10,100 -1,415 Descending Kansas City Center
Sat 06:33:28 PM 38.8708 -89.7986 235° Southwest 303 349 8,900 -1,415 Descending Kansas City Center
Sat 06:34:29 PM 38.8275 -89.8783 235° Southwest 282 325 7,200 -1,918 Descending Kansas City Center
Sat 06:35:30 PM 38.7858 -89.9550 235° Southwest 270 311 5,000 -1,869 Descending Kansas City Center
Sat 06:36:31 PM 38.7442 -90.0319 235° Southwest 266 306 3,400 -787 Descending Kansas City Center
Sat 06:37:32 PM 38.7219 -90.1028 248° West 231 266 3,400 -390 Level Kansas City Center
Sat 06:38:34 PM 38.7117 -90.1731 259° West 210 242 2,600 -683 Descending Kansas City Center
Sat 06:39:35 PM 38.7019 -90.2392 259° West 200 230 2,000 -541 Descending Kansas City Center
Sat 06:40:36 PM 38.7125 -90.2886 285° West 170 196 1,500 -689 Descending Kansas City Center
Sat 06:41:37 PM 38.7369 -90.3367 303° West 146 168 600 -885 Descending Kansas City Center
Sat 06:43:00 PM 38.7333 -90.3667 288° West  Level FlightAware Approximate
Sat 06:50:00 PM 38.7487 -90.3700 288° West  Level Estimated

Login

Don't have an account? Register now (free) for customized features, flight alerts, and more!